Search for airport 
image banner adimage banner adimage banner ad
image banner ad

IA35 - Ruckl

Located in Council Bluffs, United States

ICAO - IA35, IATA -

Data provided by Airmate  

General information

Coordinates: N41°11'14" W95°54'15"
Elevation is 970 feet MSL.
Magnetic variation is 06° East
View others Airports in Iowa

Operational data

Special qualification required
Current time UTC:
Current local time:
Weather at : KOFF - Offutt Afb ( 8 km )
METAR: KOFF 150856Z AUTO 05003KT 10SM CLR 22/14 A3009 RMK AO2 SLP184 T02220135 52004 PWINO PNO FZRANO TSNO VISNO RWY12 CHINO RWY12 $
View NOTAMs / SUP AIP / TFR affecting this airport [VIEW]
Communications frequencies: [VIEW]

Runways:

RWY identifierQFULength (ft)Width (ft)SurfaceLDA (ft)
E2400120GRASS
W2400120GRASS

Airport contact information

Address: Council Bluffs United States

Satellite view of IA35